Time;durP1;ratioP1;P1;durP2;ratioP2;P2;SDS_P1;SDS_P2;PMS_P1;PMS_P2;Temp;Humidity;BMP_temperature;BMP_pressure;BME280_temperature;BME280_humidity;BME280_pressure;Samples;Min_cycle;Max_cycle;Signal;HPM_P1;HPM_P2
2023/05/16 00:01:50;;;;;;;7.05;3.75;;;;;;;25.36;51.73;95861.91;4944664;29;20090;-57
2023/05/16 00:04:20;;;;;;;6.90;3.97;;;;;;;23.78;58.49;95866.59;4945100;28;20492;-55
2023/05/16 00:06:48;;;;;;;6.63;4.50;;;;;;;24.21;55.94;95865.13;4946493;29;20071;-57
2023/05/16 00:09:16;;;;;;;6.50;4.25;;;;;;;25.83;49.71;95858.66;4943198;29;20506;-53
2023/05/16 00:11:47;;;;;;;6.43;4.35;;;;;;;26.65;47.33;95852.84;4945748;29;20083;-52
2023/05/16 00:14:15;;;;;;;6.40;4.35;;;;;;;26.65;46.26;95855.53;4946152;29;20498;-52
2023/05/16 00:16:43;;;;;;;6.30;4.20;;;;;;;25.97;48.70;95851.75;4941562;28;20091;-56
2023/05/16 00:19:12;;;;;;;7.60;4.45;;;;;;;25.48;49.67;95857.19;4946282;28;21293;-55
2023/05/16 00:21:43;;;;;;;5.85;4.20;;;;;;;26.28;46.81;95850.91;4943405;28;20087;-53
2023/05/16 00:24:11;;;;;;;6.70;4.55;;;;;;;26.19;47.65;95857.91;4945916;29;20079;-54
2023/05/16 00:26:40;;;;;;;6.65;4.30;;;;;;;26.75;45.99;95849.38;4943435;29;20597;-54
2023/05/16 00:29:08;;;;;;;6.72;4.72;;;;;;;27.12;44.86;95849.31;4945609;29;20070;-55
2023/05/16 00:31:36;;;;;;;6.97;4.32;;;;;;;27.34;44.04;95845.59;4946091;29;20086;-59
2023/05/16 00:34:05;;;;;;;6.13;4.53;;;;;;;26.96;44.46;95844.88;4945043;29;20090;-55
2023/05/16 00:36:34;;;;;;;8.07;4.70;;;;;;;26.28;46.11;95853.63;4944278;28;20083;-55
2023/05/16 00:39:04;;;;;;;6.60;4.43;;;;;;;26.16;47.37;95852.19;4943511;28;20536;-56
2023/05/16 00:41:34;;;;;;;6.50;5.10;;;;;;;26.11;47.00;95847.53;4947708;28;20580;-57
2023/05/16 00:44:02;;;;;;;8.90;4.88;;;;;;;25.45;49.01;95857.69;4945505;29;20055;-57
2023/05/16 00:46:30;;;;;;;5.82;4.20;;;;;;;26.00;47.89;95845.84;4942013;29;20577;-57
2023/05/16 00:48:59;;;;;;;7.72;5.25;;;;;;;26.17;47.48;95845.72;4941309;29;20086;-55
2023/05/16 00:51:27;;;;;;;6.63;4.75;;;;;;;26.35;46.87;95847.19;4943155;29;20094;-57
2023/05/16 00:53:56;;;;;;;6.28;4.57;;;;;;;25.83;48.17;95853.25;4945149;29;20126;-54
2023/05/16 00:56:26;;;;;;;7.38;4.45;;;;;;;26.50;46.78;95841.94;4946614;28;20094;-54
2023/05/16 00:58:54;;;;;;;7.70;4.90;;;;;;;26.00;47.84;95841.25;4941122;29;20691;-55
2023/05/16 01:01:26;;;;;;;6.25;4.60;;;;;;;26.66;45.97;95845.53;4945029;29;20079;-56
2023/05/16 01:03:54;;;;;;;7.70;4.78;;;;;;;26.38;46.42;95852.88;4946614;29;20106;-53
2023/05/16 01:06:23;;;;;;;6.68;4.85;;;;;;;26.64;45.43;95848.50;4946761;29;20079;-55
2023/05/16 01:08:51;;;;;;;8.70;5.40;;;;;;;26.77;44.81;95847.22;4944900;29;20086;-55
2023/05/16 01:11:25;;;;;;;6.68;4.82;;;;;;;26.54;45.26;95842.22;4943508;29;20075;-56
2023/05/16 01:14:02;;;;;;;5.82;4.40;;;;;;;26.23;45.94;95844.69;4947432;29;20691;-54
2023/05/16 01:16:36;;;;;;;9.02;4.65;;;;;;;25.20;48.86;95850.13;4946405;29;20095;-57
2023/05/16 01:19:15;;;;;;;7.22;4.97;;;;;;;26.26;46.29;95841.47;4943816;29;20473;-51
2023/05/16 01:21:50;;;;;;;6.70;4.85;;;;;;;25.88;47.93;95845.19;4943165;29;20079;-54
2023/05/16 01:24:24;;;;;;;7.45;5.18;;;;;;;26.53;45.72;95835.97;4945471;28;20083;-55
2023/05/16 01:26:54;;;;;;;7.28;5.20;;;;;;;26.51;45.81;95824.63;4944563;28;20114;-54
2023/05/16 01:29:22;;;;;;;5.78;4.43;;;;;;;26.40;45.96;95825.59;4944111;28;20512;-57
2023/05/16 01:31:50;;;;;;;7.55;4.95;;;;;;;25.21;49.62;95836.38;4948353;28;20107;-55
2023/05/16 01:34:19;;;;;;;6.40;5.00;;;;;;;25.98;47.06;95826.34;4948691;28;20459;-56
2023/05/16 01:36:53;;;;;;;6.80;4.72;;;;;;;26.18;46.84;95817.59;4948688;28;20086;-57
2023/05/16 01:39:26;;;;;;;10.95;5.60;;;;;;;25.40;48.80;95830.66;4948479;28;20074;-58
2023/05/16 01:42:02;;;;;;;8.18;4.85;;;;;;;25.70;48.33;95819.31;4951459;28;20682;-55
2023/05/16 01:44:33;;;;;;;8.45;5.25;;;;;;;24.77;49.69;95822.84;4946029;28;20098;-56
2023/05/16 01:47:06;;;;;;;11.20;5.50;;;;;;;23.79;55.02;95822.44;4948183;28;20534;-56
2023/05/16 01:49:36;;;;;;;7.65;5.20;;;;;;;24.80;52.54;95826.94;4949112;28;20561;-56
2023/05/16 01:52:09;;;;;;;9.20;5.20;;;;;;;25.07;51.50;95824.31;4948551;28;20090;-54
2023/05/16 01:54:39;;;;;;;7.90;5.45;;;;;;;23.91;54.17;95823.16;4948591;28;20090;-58
2023/05/16 01:57:10;;;;;;;7.68;5.38;;;;;;;24.41;54.33;95818.88;4947086;28;20074;-58
2023/05/16 01:59:39;;;;;;;7.72;5.00;;;;;;;24.62;53.84;95818.06;4945223;28;20090;-55
2023/05/16 02:02:07;;;;;;;9.52;5.75;;;;;;;24.50;53.50;95819.25;4950267;29;20079;-58
2023/05/16 02:04:35;;;;;;;10.35;5.88;;;;;;;25.10;52.20;95816.53;4944794;28;20102;-58
2023/05/16 02:07:04;;;;;;;9.00;5.72;;;;;;;24.78;53.32;95819.09;4947452;29;20090;-56
2023/05/16 02:09:33;;;;;;;12.02;5.68;;;;;;;24.58;52.46;95824.22;4947617;29;20457;-57
2023/05/16 02:12:01;;;;;;;9.43;6.15;;;;;;;25.29;49.55;95817.06;4948543;29;20078;-55
2023/05/16 02:14:31;;;;;;;8.75;6.10;;;;;;;24.39;51.28;95823.63;4946707;29;20089;-57
2023/05/16 02:16:59;;;;;;;10.10;6.15;;;;;;;25.27;49.39;95821.88;4947136;29;20835;-56
2023/05/16 02:19:28;;;;;;;9.02;6.18;;;;;;;25.37;48.75;95826.56;4942768;28;20681;-57
2023/05/16 02:21:56;;;;;;;9.48;6.10;;;;;;;25.36;48.72;95829.50;4943678;29;20091;-56
2023/05/16 02:24:24;;;;;;;8.30;6.18;;;;;;;25.96;47.08;95823.09;4944110;29;20075;-59
2023/05/16 02:26:53;;;;;;;8.98;6.03;;;;;;;25.67;47.04;95831.47;4942221;29;20119;-56
2023/05/16 02:29:21;;;;;;;11.52;6.60;;;;;;;26.33;45.70;95825.84;4940223;29;20424;-57
2023/05/16 02:31:50;;;;;;;9.35;6.45;;;;;;;26.47;45.45;95820.81;4941408;29;20086;-52
2023/05/16 02:34:19;;;;;;;9.70;6.45;;;;;;;25.42;47.44;95836.59;4941392;29;20083;-58
2023/05/16 02:36:47;;;;;;;9.43;6.30;;;;;;;26.67;44.48;95823.66;4942734;28;20093;-56
2023/05/16 02:39:15;;;;;;;8.40;6.22;;;;;;;26.35;45.69;95829.06;4937800;28;20791;-55
2023/05/16 02:41:43;;;;;;;10.35;6.80;;;;;;;25.58;47.00;95833.00;4944374;29;20093;-58
2023/05/16 02:44:12;;;;;;;10.90;6.38;;;;;;;26.46;45.29;95828.09;4945768;29;20082;-55
2023/05/16 02:46:40;;;;;;;10.00;6.30;;;;;;;26.73;44.60;95827.19;4943553;29;20083;-54
2023/05/16 02:49:10;;;;;;;10.68;6.28;;;;;;;26.67;45.08;95826.34;4944613;29;20093;-58
2023/05/16 02:51:38;;;;;;;10.27;6.75;;;;;;;26.79;44.13;95828.84;4940942;29;20090;-52
2023/05/16 02:54:08;;;;;;;10.80;6.63;;;;;;;26.14;45.67;95838.13;4944254;28;20093;-56
2023/05/16 02:56:37;;;;;;;8.73;6.03;;;;;;;26.45;45.07;95831.03;4941114;29;20543;-57
2023/05/16 02:59:05;;;;;;;9.18;6.28;;;;;;;26.58;44.44;95827.91;4940495;29;20089;-55
2023/05/16 03:01:34;;;;;;;8.50;6.13;;;;;;;26.57;44.55;95820.06;4938423;29;20101;-55
2023/05/16 03:04:02;;;;;;;8.65;6.22;;;;;;;26.88;43.97;95821.84;4940493;29;20091;-54
2023/05/16 03:06:32;;;;;;;9.18;6.28;;;;;;;26.37;45.19;95832.34;4941102;29;20805;-54
2023/05/16 03:09:00;;;;;;;11.13;6.55;;;;;;;25.77;46.73;95845.06;4940120;29;20094;-57
2023/05/16 03:11:29;;;;;;;10.40;6.15;;;;;;;25.70;47.17;95839.03;4942599;28;20083;-52
2023/05/16 03:13:58;;;;;;;12.88;6.88;;;;;;;25.82;46.91;95833.53;4940662;29;20094;-52
2023/05/16 03:16:29;;;;;;;9.10;6.18;;;;;;;25.82;47.27;95832.72;4938270;29;20083;-55
2023/05/16 03:18:57;;;;;;;8.80;6.47;;;;;;;26.18;46.23;95826.50;4938246;29;20515;-56
2023/05/16 03:21:26;;;;;;;10.57;6.40;;;;;;;25.13;48.42;95839.53;4941756;29;22036;-56
2023/05/16 03:23:55;;;;;;;9.50;6.57;;;;;;;25.34;47.25;95832.47;4943112;29;20090;-58
2023/05/16 03:26:24;;;;;;;10.87;6.67;;;;;;;25.16;48.37;95838.22;4941531;29;20090;-57
2023/05/16 03:28:52;;;;;;;10.38;6.63;;;;;;;24.36;50.66;95837.59;4941092;28;20087;-53
2023/05/16 03:31:21;;;;;;;10.93;6.75;;;;;;;26.03;46.72;95818.31;4946937;29;20102;-57
2023/05/16 03:33:49;;;;;;;13.02;7.13;;;;;;;26.01;46.57;95828.53;4944543;29;20079;-54
2023/05/16 03:36:18;;;;;;;11.65;6.82;;;;;;;26.22;45.75;95824.09;4942993;28;20535;-54
2023/05/16 03:38:46;;;;;;;10.05;7.05;;;;;;;26.06;45.87;95825.09;4944813;28;20157;-54
2023/05/16 03:41:16;;;;;;;11.00;7.38;;;;;;;25.56;46.48;95830.53;4939967;29;20131;-55
2023/05/16 03:43:44;;;;;;;9.40;6.50;;;;;;;25.09;48.87;95822.19;4940595;29;20087;-52
2023/05/16 03:46:13;;;;;;;10.07;6.90;;;;;;;25.36;48.38;95824.91;4939811;28;20289;-56
2023/05/16 03:48:41;;;;;;;11.35;6.88;;;;;;;25.60;47.15;95822.75;4939078;28;20138;-55
2023/05/16 03:51:09;;;;;;;10.45;6.18;;;;;;;25.86;46.46;95821.13;4942482;28;20075;-58
2023/05/16 03:53:38;;;;;;;10.48;7.45;;;;;;;26.12;46.43;95815.91;4938920;29;20086;-52
2023/05/16 03:56:06;;;;;;;12.02;7.57;;;;;;;25.97;46.52;95817.44;4941812;29;20536;-56
2023/05/16 03:58:36;;;;;;;11.35;7.53;;;;;;;25.82;46.04;95825.44;4941603;29;20510;-53
2023/05/16 04:01:05;;;;;;;10.18;6.97;;;;;;;26.20;45.93;95824.38;4941375;29;20071;-54
2023/05/16 04:03:33;;;;;;;14.63;7.13;;;;;;;26.15;45.80;95815.41;4940781;28;20074;-54
2023/05/16 04:06:02;;;;;;;10.52;7.25;;;;;;;25.36;47.42;95822.22;4938364;29;20376;-51
2023/05/16 04:08:30;;;;;;;11.50;7.20;;;;;;;25.62;47.28;95823.31;4937483;29;20562;-58
2023/05/16 04:10:58;;;;;;;11.20;7.53;;;;;;;25.74;47.61;95829.38;4945917;28;20122;-58
2023/05/16 04:13:27;;;;;;;10.95;7.35;;;;;;;25.48;47.76;95825.59;4944901;29;20551;-56
2023/05/16 04:15:56;;;;;;;12.57;7.95;;;;;;;24.87;50.82;95822.16;4946694;29;20090;-56
2023/05/16 04:18:25;;;;;;;14.00;8.47;;;;;;;23.81;53.29;95831.09;4950482;28;20079;-57
2023/05/16 04:20:53;;;;;;;11.95;8.00;;;;;;;24.23;53.69;95825.31;4950304;28;20086;-52
2023/05/16 04:23:21;;;;;;;12.15;7.75;;;;;;;24.06;54.81;95830.69;4949809;29;20086;-57
2023/05/16 04:25:49;;;;;;;13.70;7.95;;;;;;;24.94;51.36;95830.88;4948863;29;20090;-56
2023/05/16 04:28:18;;;;;;;12.13;8.07;;;;;;;23.72;55.65;95827.16;4950199;29;20113;-54
2023/05/16 04:30:46;;;;;;;12.25;7.47;;;;;;;24.73;52.60;95839.78;4946469;29;20079;-57
2023/05/16 04:33:16;;;;;;;14.63;8.40;;;;;;;25.37;50.66;95829.28;4947614;29;20538;-55
2023/05/16 04:35:44;;;;;;;11.77;7.88;;;;;;;25.41;49.66;95826.88;4945186;28;20094;-54
2023/05/16 04:38:12;;;;;;;12.52;7.85;;;;;;;25.62;48.37;95842.22;4949365;29;20531;-57
2023/05/16 04:40:42;;;;;;;11.85;8.30;;;;;;;25.46;48.88;95833.13;4945434;28;20067;-54
2023/05/16 04:43:10;;;;;;;13.00;8.85;;;;;;;25.63;48.06;95833.03;4950546;29;20090;-56
2023/05/16 04:45:38;;;;;;;11.65;7.43;;;;;;;26.09;46.53;95836.19;4946931;28;20079;-58
2023/05/16 04:48:07;;;;;;;14.40;8.10;;;;;;;25.69;47.99;95836.59;4950088;29;20079;-55
2023/05/16 04:50:36;;;;;;;11.73;7.95;;;;;;;25.94;47.79;95831.47;4949462;29;20086;-56
2023/05/16 04:53:05;;;;;;;12.60;8.23;;;;;;;26.00;47.59;95835.03;4954895;28;20090;-56
2023/05/16 04:55:33;;;;;;;12.07;8.32;;;;;;;25.07;49.17;95845.88;4948944;28;20561;-55
2023/05/16 04:58:01;;;;;;;12.95;7.85;;;;;;;24.54;51.07;95841.97;4947177;29;20097;-58
2023/05/16 05:00:30;;;;;;;14.63;7.97;;;;;;;25.38;50.40;95839.00;4949145;29;20075;-57
2023/05/16 05:02:58;;;;;;;13.25;8.48;;;;;;;25.45;49.51;95838.78;4947035;28;20094;-58
2023/05/16 05:05:26;;;;;;;12.82;8.43;;;;;;;24.83;50.83;95840.72;4952746;29;20094;-57
2023/05/16 05:07:58;;;;;;;12.57;8.48;;;;;;;24.72;50.99;95838.16;4953652;29;20086;-58
2023/05/16 05:10:27;;;;;;;13.30;9.05;;;;;;;24.88;51.08;95840.00;4950304;28;20082;-57
2023/05/16 05:12:55;;;;;;;13.55;8.32;;;;;;;25.48;48.56;95839.09;4953900;29;20098;-57
2023/05/16 05:15:23;;;;;;;13.13;8.88;;;;;;;25.80;48.54;95835.66;4951989;29;20093;-55
2023/05/16 05:17:52;;;;;;;13.15;8.32;;;;;;;25.07;48.71;95835.09;4953486;29;20098;-54
2023/05/16 05:20:20;;;;;;;14.43;8.13;;;;;;;24.11;52.18;95843.44;4950758;29;20590;-58
2023/05/16 05:22:49;;;;;;;14.40;7.68;;;;;;;24.30;52.55;95846.69;4953593;29;20082;-57
2023/05/16 05:25:18;;;;;;;12.48;8.27;;;;;;;24.33;54.95;95844.31;4952571;29;20539;-52
2023/05/16 05:27:46;;;;;;;14.33;8.40;;;;;;;24.04;53.89;95845.47;4951243;28;20696;-57
2023/05/16 05:30:15;;;;;;;11.32;7.45;;;;;;;24.77;51.06;95841.72;4950936;29;20105;-55
2023/05/16 05:32:43;;;;;;;11.13;6.97;;;;;;;24.57;51.56;95836.88;4948381;29;20075;-55
2023/05/16 05:35:11;;;;;;;13.15;8.93;;;;;;;25.05;50.47;95838.06;4952945;29;20440;-57
2023/05/16 05:37:40;;;;;;;14.93;7.82;;;;;;;24.47;51.61;95834.03;4948586;29;20471;-57
2023/05/16 05:40:09;;;;;;;13.88;9.43;;;;;;;24.56;52.47;95829.03;4952007;29;20039;-57
2023/05/16 05:42:38;;;;;;;12.65;8.32;;;;;;;25.85;49.94;95826.81;4953134;29;20058;-58
2023/05/16 05:45:07;;;;;;;13.85;8.45;;;;;;;24.81;51.63;95833.94;4957612;28;20542;-57
2023/05/16 05:47:36;;;;;;;15.63;8.88;;;;;;;25.54;48.60;95829.19;4952742;29;20086;-58
2023/05/16 05:50:05;;;;;;;12.77;7.65;;;;;;;25.25;48.96;95828.59;4951551;29;20082;-55
2023/05/16 05:52:33;;;;;;;12.40;8.60;;;;;;;25.70;47.13;95833.63;4952583;29;20078;-58
2023/05/16 05:55:02;;;;;;;16.05;8.70;;;;;;;25.53;47.59;95822.13;4952968;29;20090;-58
2023/05/16 05:57:30;;;;;;;12.18;8.80;;;;;;;25.92;47.96;95820.13;4952738;29;20082;-55
2023/05/16 06:00:00;;;;;;;13.35;7.82;;;;;;;26.14;46.35;95822.72;4952791;29;20160;-52
2023/05/16 06:02:28;;;;;;;11.68;8.52;;;;;;;26.09;46.54;95827.28;4951993;28;20090;-55
2023/05/16 06:04:57;;;;;;;17.83;8.85;;;;;;;25.47;48.37;95829.38;4951389;29;20083;-58
2023/05/16 06:07:25;;;;;;;12.63;8.07;;;;;;;25.60;48.20;95828.13;4949690;29;20106;-56
2023/05/16 06:09:53;;;;;;;14.10;8.93;;;;;;;25.74;47.68;95831.25;4952589;29;20109;-53
2023/05/16 06:12:21;;;;;;;14.25;8.45;;;;;;;24.97;50.26;95829.56;4951731;29;20093;-57
2023/05/16 06:14:50;;;;;;;10.80;7.55;;;;;;;26.18;47.33;95825.72;4952018;28;20097;-56
2023/05/16 06:17:19;;;;;;;11.75;8.07;;;;;;;25.96;47.01;95817.72;4952498;29;20097;-53
2023/05/16 06:19:48;;;;;;;16.70;7.77;;;;;;;26.81;45.92;95820.47;4951728;28;20086;-54
2023/05/16 06:22:16;;;;;;;13.10;8.55;;;;;;;25.48;47.85;95827.50;4952676;29;20091;-57
2023/05/16 06:24:44;;;;;;;14.07;8.23;;;;;;;25.77;49.00;95831.56;4944725;28;20089;-54
2023/05/16 06:27:13;;;;;;;15.95;9.13;;;;;;;25.96;47.71;95826.63;4952417;29;20078;-57
2023/05/16 06:29:41;;;;;;;14.25;8.82;;;;;;;26.68;44.39;95825.25;4951945;29;20087;-55
2023/05/16 06:32:09;;;;;;;10.30;7.88;;;;;;;26.47;45.76;95827.03;4952115;29;20486;-56
2023/05/16 06:34:41;;;;;;;12.20;8.35;;;;;;;26.22;46.49;95837.63;4953184;28;20401;-56
2023/05/16 06:37:10;;;;;;;11.30;7.57;;;;;;;26.47;45.25;95832.44;4954303;28;20090;-57
2023/05/16 06:39:38;;;;;;;13.18;8.43;;;;;;;26.09;46.11;95836.19;4951477;29;20505;-54
2023/05/16 06:42:06;;;;;;;13.68;8.05;;;;;;;26.72;44.17;95834.47;4952185;29;20144;-57
2023/05/16 06:44:35;;;;;;;16.08;8.48;;;;;;;26.16;46.41;95828.69;4947714;29;20090;-54
2023/05/16 06:47:03;;;;;;;13.93;8.07;;;;;;;25.57;48.62;95836.78;4952001;29;20094;-54
2023/05/16 06:49:32;;;;;;;12.80;8.20;;;;;;;25.04;50.55;95838.28;4948622;29;20079;-57
2023/05/16 06:52:02;;;;;;;12.98;8.95;;;;;;;25.73;50.35;95840.41;4954636;28;20087;-58
2023/05/16 06:54:31;;;;;;;11.82;8.25;;;;;;;26.39;48.04;95835.59;4952766;28;20095;-53
2023/05/16 06:56:59;;;;;;;13.07;8.38;;;;;;;25.45;50.19;95838.78;4950875;29;20490;-55
2023/05/16 06:59:27;;;;;;;13.60;8.60;;;;;;;26.10;47.82;95828.91;4951481;29;20109;-57
2023/05/16 07:01:56;;;;;;;12.73;8.65;;;;;;;26.69;45.99;95831.47;4950820;29;20130;-53
2023/05/16 07:04:24;;;;;;;13.68;9.00;;;;;;;26.67;45.41;95828.22;4951446;29;20090;-55
2023/05/16 07:06:53;;;;;;;10.52;5.03;;;;;;;26.61;45.68;95832.81;4943013;29;20428;-54
2023/05/16 07:09:22;;;;;;;12.52;8.50;;;;;;;26.56;46.15;95827.34;4952237;28;20662;-57
2023/05/16 07:11:51;;;;;;;14.20;9.17;;;;;;;26.71;46.01;95835.56;4951240;29;20098;-55
2023/05/16 07:14:19;;;;;;;13.00;8.63;;;;;;;27.00;45.41;95840.56;4951985;29;20090;-52
2023/05/16 07:16:47;;;;;;;13.93;8.02;;;;;;;27.24;44.80;95829.34;4946466;29;20078;-53
2023/05/16 07:19:16;;;;;;;13.63;9.85;;;;;;;27.43;43.79;95833.19;4950251;29;20102;-57
2023/05/16 07:21:44;;;;;;;13.20;9.00;;;;;;;27.51;43.64;95838.06;4947314;29;20078;-52
2023/05/16 07:24:12;;;;;;;12.05;7.38;;;;;;;27.40;42.90;95836.44;4951468;28;20090;-55
2023/05/16 07:26:42;;;;;;;11.80;7.55;;;;;;;27.28;43.62;95833.13;4947629;28;20097;-54
2023/05/16 07:29:10;;;;;;;7.30;5.33;;;;;;;27.37;43.50;95842.38;4951710;29;20099;-55
2023/05/16 07:31:39;;;;;;;11.45;7.18;;;;;;;27.35;43.83;95833.69;4947092;29;20510;-57
2023/05/16 07:34:07;;;;;;;10.52;6.88;;;;;;;27.02;44.08;95843.84;4951179;29;20078;-58
2023/05/16 07:36:35;;;;;;;13.90;9.05;;;;;;;27.50;44.05;95843.78;4948061;29;20091;-56
2023/05/16 07:39:04;;;;;;;10.68;7.53;;;;;;;27.37;44.21;95850.50;4950881;29;20482;-56
2023/05/16 07:41:32;;;;;;;13.88;9.30;;;;;;;27.84;42.70;95844.13;4950815;29;20082;-53
2023/05/16 07:44:02;;;;;;;12.15;8.40;;;;;;;27.90;42.54;95848.47;4952526;28;20087;-57
2023/05/16 07:46:30;;;;;;;12.45;9.02;;;;;;;28.04;42.77;95846.84;4949518;28;20089;-58
2023/05/16 07:48:58;;;;;;;11.13;8.18;;;;;;;27.66;42.86;95854.34;4951306;29;20095;-57
2023/05/16 07:51:27;;;;;;;9.57;6.75;;;;;;;27.97;42.30;95856.34;4940876;29;20087;-56
2023/05/16 07:53:55;;;;;;;15.15;8.38;;;;;;;27.81;41.89;95856.31;4946470;29;20086;-58
2023/05/16 07:56:24;;;;;;;14.15;8.35;;;;;;;27.95;42.07;95856.63;4946579;29;20079;-58
2023/05/16 07:58:52;;;;;;;12.52;8.73;;;;;;;28.24;41.99;95846.03;4950272;29;20071;-56
2023/05/16 08:01:22;;;;;;;6.47;5.20;;;;;;;28.12;41.33;95859.88;4951051;28;20099;-58
2023/05/16 08:03:52;;;;;;;15.27;6.93;;;;;;;27.75;42.21;95857.34;4950195;29;20717;-59
2023/05/16 08:06:20;;;;;;;11.48;8.10;;;;;;;28.11;41.51;95860.13;4948502;29;20563;-56
2023/05/16 08:08:48;;;;;;;11.45;7.93;;;;;;;28.48;41.01;95861.78;4950139;29;20094;-59
2023/05/16 08:11:18;;;;;;;11.75;8.48;;;;;;;28.63;40.42;95861.75;4949160;29;20274;-56
2023/05/16 08:13:48;;;;;;;12.95;8.57;;;;;;;29.00;40.12;95866.06;4947430;29;20062;-58
2023/05/16 08:16:17;;;;;;;10.98;8.32;;;;;;;28.92;40.11;95866.59;4944923;29;20083;-56
2023/05/16 08:18:46;;;;;;;9.88;8.27;;;;;;;28.42;41.39;95868.28;4952523;28;20790;-59
2023/05/16 08:21:15;;;;;;;11.33;8.90;;;;;;;28.83;40.65;95867.13;4947670;29;20090;-58
2023/05/16 08:23:43;;;;;;;11.77;8.15;;;;;;;28.28;41.59;95870.72;4950003;29;20083;-57
2023/05/16 08:26:12;;;;;;;11.52;8.20;;;;;;;27.84;42.09;95871.22;4945794;28;20082;-58
2023/05/16 08:28:40;;;;;;;11.07;8.00;;;;;;;28.35;41.60;95872.06;4950066;29;20075;-59
2023/05/16 08:31:08;;;;;;;15.07;8.43;;;;;;;28.83;40.12;95874.47;4947595;29;20086;-53
2023/05/16 08:33:39;;;;;;;11.27;6.35;;;;;;;27.87;41.65;95867.97;4949957;28;20174;-58
2023/05/16 08:36:09;;;;;;;11.02;8.25;;;;;;;26.12;46.16;95884.31;4949820;29;20170;-55
2023/05/16 08:38:37;;;;;;;;;;;;;;;27.31;43.17;95875.91;4950333;28;20086;-58
2023/05/16 08:41:06;;;;;;;10.95;7.03;;;;;;;27.81;42.51;95872.59;4947879;29;19962;-56
2023/05/16 08:43:35;;;;;;;12.38;8.02;;;;;;;26.99;44.80;95872.22;4946760;29;20075;-56
2023/05/16 08:46:03;;;;;;;11.75;8.95;;;;;;;27.73;43.59;95873.06;4947460;29;20062;-58
2023/05/16 08:48:33;;;;;;;12.90;8.82;;;;;;;27.98;44.08;95880.47;4943187;29;20083;-58
2023/05/16 08:51:02;;;;;;;149.88;64.53;;;;;;;28.38;44.21;95873.41;4946216;28;20476;-58
2023/05/16 08:53:39;;;;;;;12.95;7.93;;;;;;;28.41;43.19;95874.81;4949855;29;20094;-57
2023/05/16 08:56:08;;;;;;;9.07;5.80;;;;;;;27.14;46.94;95873.41;4948915;29;20086;-52
2023/05/16 08:58:37;;;;;;;4.28;3.00;;;;;;;26.65;48.74;95876.38;4950147;29;20085;-54
2023/05/16 09:01:07;;;;;;;10.93;7.78;;;;;;;27.06;51.17;95871.19;4942596;29;20071;-54
2023/05/16 09:03:37;;;;;;;12.45;8.30;;;;;;;27.69;50.17;95867.38;4947031;29;20101;-58
2023/05/16 09:06:06;;;;;;;15.48;9.60;;;;;;;27.71;50.39;95877.13;4948553;29;20074;-57
2023/05/16 09:08:36;;;;;;;12.43;9.60;;;;;;;27.70;50.81;95868.16;4949692;28;20090;-53
2023/05/16 09:11:05;;;;;;;12.47;8.87;;;;;;;27.49;51.05;95875.44;4949210;29;20078;-55
2023/05/16 09:13:33;;;;;;;13.45;9.70;;;;;;;28.17;46.93;95875.31;4948035;29;20486;-58
2023/05/16 09:16:12;;;;;;;13.88;9.25;;;;;;;28.51;48.54;95878.31;4943886;29;20078;-54
2023/05/16 09:18:41;;;;;;;12.23;9.98;;;;;;;27.99;46.03;95870.44;4949583;29;20090;-56
2023/05/16 09:21:10;;;;;;;12.45;9.23;;;;;;;28.16;45.58;95860.97;4949751;29;20209;-57
2023/05/16 09:23:39;;;;;;;14.00;10.02;;;;;;;29.06;47.09;95859.53;4949844;29;20075;-57
2023/05/16 09:26:08;;;;;;;12.17;9.43;;;;;;;28.39;45.35;95859.63;4948847;28;20490;-57
2023/05/16 09:28:38;;;;;;;11.73;8.63;;;;;;;27.69;46.91;95861.94;4949458;29;20086;-57
2023/05/16 09:31:20;;;;;;;12.80;8.75;;;;;;;28.09;48.63;95856.91;4949438;29;20097;-59
2023/05/16 09:33:49;;;;;;;10.70;7.00;;;;;;;27.77;48.99;95857.94;4949326;29;20082;-55
2023/05/16 09:36:18;;;;;;;7.28;5.18;;;;;;;27.62;49.97;95863.28;4946748;29;20071;-57
2023/05/16 09:38:48;;;;;;;10.60;6.40;;;;;;;26.96;53.49;95872.75;4949293;29;20109;-54
2023/05/16 09:41:16;;;;;;;13.88;9.15;;;;;;;26.92;57.07;95855.44;4944765;29;20094;-56
2023/05/16 09:43:45;;;;;;;15.00;9.85;;;;;;;27.34;56.69;95859.97;4948978;28;20075;-57
2023/05/16 09:46:14;;;;;;;16.98;11.10;;;;;;;27.34;54.30;95851.84;4938399;29;20087;-50
2023/05/16 09:48:45;;;;;;;16.08;11.05;;;;;;;26.21;58.92;95861.13;4947250;28;20091;-55
2023/05/16 09:51:15;;;;;;;23.92;16.45;;;;;;;27.97;55.50;95859.84;4953107;28;20083;-56
2023/05/16 09:53:43;;;;;;;13.82;9.82;;;;;;;28.28;51.85;95851.72;4952887;29;20144;-55
2023/05/16 09:56:14;;;;;;;13.40;10.45;;;;;;;28.04;49.73;95849.56;4949924;29;20083;-56
2023/05/16 09:58:43;;;;;;;15.13;10.63;;;;;;;28.23;50.38;95857.16;4953205;28;20086;-59
2023/05/16 10:01:12;;;;;;;14.82;9.75;;;;;;;27.78;49.75;95856.84;4951270;29;20083;-53
2023/05/16 10:03:41;;;;;;;13.98;9.90;;;;;;;27.83;50.16;95859.56;4952958;28;20086;-58
2023/05/16 10:06:10;;;;;;;13.63;10.32;;;;;;;26.75;54.08;95863.72;4951371;29;20118;-56
2023/05/16 10:08:41;;;;;;;13.73;9.98;;;;;;;27.90;51.57;95862.00;4946554;29;20130;-55
2023/05/16 10:11:10;;;;;;;16.52;10.68;;;;;;;27.80;50.25;95862.00;4950033;28;20083;-57
2023/05/16 10:13:40;;;;;;;13.93;10.38;;;;;;;27.20;50.83;95867.75;4952617;29;20477;-58
2023/05/16 10:16:12;;;;;;;17.77;10.88;;;;;;;26.49;54.19;95870.03;4947593;28;20087;-59
2023/05/16 10:18:41;;;;;;;14.75;10.48;;;;;;;26.91;53.29;95874.59;4949870;29;20079;-59
2023/05/16 10:21:10;;;;;;;14.38;10.43;;;;;;;27.72;52.50;95871.44;4950833;29;20110;-55
2023/05/16 10:23:42;;;;;;;14.70;10.25;;;;;;;27.37;53.18;95872.97;4950740;29;20433;-57
2023/05/16 10:26:13;;;;;;;15.15;11.15;;;;;;;27.64;52.44;95870.06;4945580;29;20094;-57
2023/05/16 10:28:43;;;;;;;14.20;11.02;;;;;;;27.90;52.26;95864.72;4950602;28;20514;-55
2023/05/16 10:31:11;;;;;;;13.63;11.35;;;;;;;26.84;54.52;95865.91;4952697;29;20082;-55
2023/05/16 10:33:40;;;;;;;14.88;10.90;;;;;;;26.63;57.63;95864.97;4953757;28;20082;-60
2023/05/16 10:36:10;;;;;;;14.32;10.38;;;;;;;26.56;56.93;95873.31;4950321;29;20083;-58
2023/05/16 10:38:38;;;;;;;14.55;10.18;;;;;;;28.15;51.08;95867.47;4951737;29;20103;-59
2023/05/16 10:41:07;;;;;;;13.95;10.45;;;;;;;27.75;52.42;95875.53;4951201;29;20557;-60
2023/05/16 10:43:36;;;;;;;14.60;10.63;;;;;;;26.97;53.08;95884.38;4949553;29;20082;-57
2023/05/16 10:46:08;;;;;;;15.23;10.55;;;;;;;27.86;50.93;95872.56;4951650;29;20075;-53
2023/05/16 10:48:38;;;;;;;13.75;10.23;;;;;;;26.44;54.70;95880.78;4948513;29;20082;-59
2023/05/16 10:51:34;;;;;;;13.68;9.88;;;;;;;27.90;52.52;95872.84;4946940;28;20105;-58
2023/05/16 10:54:07;;;;;;;14.43;10.32;;;;;;;28.25;52.50;95871.25;4951642;29;20082;-53
2023/05/16 10:56:36;;;;;;;15.38;10.07;;;;;;;27.09;53.18;95881.50;4951557;29;20077;-55
2023/05/16 10:59:04;;;;;;;14.68;9.85;;;;;;;29.12;48.83;95874.72;4945445;29;20086;-59
2023/05/16 11:01:34;;;;;;;14.13;10.88;;;;;;;28.18;51.24;95879.66;4948160;28;20088;-55
2023/05/16 11:04:09;;;;;;;14.68;10.75;;;;;;;28.97;47.51;95875.53;4951224;29;20172;-60
2023/05/16 11:06:50;;;;;;;16.58;10.95;;;;;;;28.63;50.23;95878.03;4950688;28;20479;-59
2023/05/16 11:09:22;;;;;;;13.38;9.73;;;;;;;28.22;52.00;95871.78;4947163;29;20054;-60
2023/05/16 11:12:01;;;;;;;12.80;9.55;;;;;;;26.84;56.71;95874.03;4949410;29;20086;-56
2023/05/16 11:14:37;;;;;;;14.10;10.70;;;;;;;27.80;53.11;95868.22;4951164;29;20536;-60
2023/05/16 11:17:11;;;;;;;17.98;11.15;;;;;;;29.89;47.88;95860.75;4951591;29;20075;-58
2023/05/16 11:19:42;;;;;;;14.52;11.18;;;;;;;30.67;44.95;95849.00;4951974;29;20130;-54
2023/05/16 11:22:21;;;;;;;;;;;;;;;28.00;50.87;95869.34;4951916;29;20085;-60
2023/05/16 11:24:52;;;;;;;13.00;10.07;;;;;;;28.99;49.16;95864.41;4953044;28;19966;-59
2023/05/16 11:27:25;;;;;;;16.08;11.55;;;;;;;28.75;51.15;95856.06;4951106;29;20664;-55
2023/05/16 11:29:55;;;;;;;14.55;11.52;;;;;;;30.19;46.33;95860.56;4951647;29;20523;-56
2023/05/16 11:32:25;;;;;;;16.00;10.77;;;;;;;28.44;50.80;95855.28;4950721;29;20086;-59
2023/05/16 11:34:54;;;;;;;16.38;11.20;;;;;;;28.78;49.70;95853.59;4950857;29;20079;-57
2023/05/16 11:37:22;;;;;;;15.15;11.23;;;;;;;29.08;47.76;95852.72;4951331;29;20543;-58